If you wish to contribute or participate in the discussions about articles you are invited to join SKYbrary as a registered user

 Actions

Noto Airport

From SKYbrary Wiki

RJNW
Airport
ICAO: RJNW – IATA: NTQ
Summary
Name Noto Airport
Region Asia and Pacific
Territory Japan JP.gif
Location Wajima, Ishikawa Prefecture
Serving Noto Peninsula
Elevation 218.846 m
718 ft218.846 m
Coordinates 37° 17' 42.94" N, 136° 57' 26.37" E
Runways
Designator Length Width Surface ROPS
7/25 2000 m6,561.68 ft
45 m147.638 ft
ASP /


METAR
Observation RJNW 111000Z 31002KT 9999 FEW030 BKN/// 05/M00 Q1014
Station NOTO
Date/Time 11 April 2019 10:00:00
Wind direction 310°
Wind speed 02 kts
Lowest cloud amount few clouds
Temperature 5°C
Dew point
Humidity 70%
QNH 1014 hPa
Weather condition n/a

Noto Airport, also unofficially known as Wajima Airport, is a domestic airport located 6.4nm11,852.8 m
11.853 km
38,887.139 ft
south southeast of the city of Wajima on the Noto Peninsula of Ishikawa Prefecture, Japan.

Climatology

Humid Sub-tropical climate (Köppen climate classification Cfa)

Maps

Terrain

Loading map...

Airport Layout

Loading map...


Accidents & Serious Incidents at or in vicinity of RJNW

None on SKYbrary